createdAt,value
2023-04-02T00:01:21.744Z,72.68
2023-04-02T00:04:16.465Z,73.21
2023-04-02T00:06:54.601Z,73.20
2023-04-02T00:09:38.049Z,73.12
2023-04-02T00:12:21.474Z,73.42
2023-04-02T00:14:58.847Z,73.48
2023-04-02T00:17:33.294Z,73.17
2023-04-02T00:20:10.238Z,72.91
2023-04-02T00:22:46.116Z,72.88
2023-04-02T00:25:20.752Z,72.36
2023-04-02T00:27:56.037Z,72.17
2023-04-02T00:30:34.746Z,71.61
2023-04-02T00:33:17.530Z,71.39
2023-04-02T00:35:54.661Z,70.97
2023-04-02T00:38:33.035Z,72.09
2023-04-02T00:41:08.796Z,72.64
2023-04-02T00:43:47.450Z,73.04
2023-04-02T00:46:27.699Z,73.22
2023-04-02T00:49:09.946Z,73.12
2023-04-02T00:51:51.598Z,72.72
2023-04-02T00:54:30.257Z,73.12
2023-04-02T00:57:05.346Z,72.56
2023-04-02T00:59:50.220Z,72.12
2023-04-02T01:02:32.338Z,73.29
2023-04-02T01:05:23.368Z,73.67
2023-04-02T01:08:09.886Z,73.69
2023-04-02T01:10:59.269Z,74.04
2023-04-02T01:13:41.204Z,74.17
2023-04-02T01:16:22.912Z,74.24
2023-04-02T01:19:06.409Z,73.93
2023-04-02T01:21:53.983Z,74.12
2023-04-02T01:24:34.287Z,74.24
2023-04-02T01:27:17.769Z,73.97
2023-04-02T01:29:57.708Z,75.50
2023-04-02T01:32:32.971Z,75.55
2023-04-02T01:35:09.586Z,75.38
2023-04-02T01:37:51.661Z,74.29
2023-04-02T01:40:39.474Z,73.58
2023-04-02T01:43:20.807Z,73.28
2023-04-02T01:45:58.851Z,73.51
2023-04-02T01:48:33.595Z,73.50
2023-04-02T01:51:09.338Z,73.53
2023-04-02T01:53:43.842Z,72.10
2023-04-02T01:56:18.665Z,73.05
2023-04-02T01:58:54.014Z,73.28
2023-04-02T02:01:36.681Z,73.62
2023-04-02T02:04:14.086Z,74.13
2023-04-02T02:06:49.174Z,72.98
2023-04-02T02:09:28.791Z,72.49
2023-04-02T02:12:04.013Z,71.64
2023-04-02T02:14:38.716Z,72.08
2023-04-02T02:17:16.798Z,72.17
2023-04-02T02:19:56.117Z,72.52
2023-04-02T02:22:32.960Z,71.72
2023-04-02T02:25:15.764Z,71.27
2023-04-02T02:28:02.477Z,71.94
2023-04-02T02:30:40.415Z,71.54
2023-04-02T02:33:22.355Z,71.66
2023-04-02T02:36:01.251Z,71.35
2023-04-02T02:38:47.244Z,70.99
2023-04-02T02:41:27.267Z,71.48
2023-04-02T02:44:06.638Z,72.33
2023-04-02T02:46:46.855Z,71.81
2023-04-02T02:49:28.473Z,71.67
2023-04-02T02:52:16.290Z,71.48
2023-04-02T02:54:53.466Z,71.15
2023-04-02T02:57:31.589Z,71.23
2023-04-02T03:00:10.193Z,71.50
2023-04-02T03:02:46.144Z,72.27
2023-04-02T03:05:26.210Z,72.41
2023-04-02T03:08:06.579Z,72.45
2023-04-02T03:10:46.932Z,72.84
2023-04-02T03:13:26.579Z,73.04
2023-04-02T03:16:08.889Z,72.69
2023-04-02T03:18:51.964Z,72.83
2023-04-02T03:21:32.381Z,73.61
2023-04-02T03:24:10.945Z,73.06
2023-04-02T03:26:51.287Z,73.79
2023-04-02T03:29:29.331Z,73.35
2023-04-02T03:32:09.009Z,73.31
2023-04-02T03:34:50.321Z,73.15
2023-04-02T03:37:33.473Z,73.26
2023-04-02T03:40:16.084Z,73.09
2023-04-02T03:42:54.507Z,73.31
2023-04-02T03:45:33.696Z,73.72
2023-04-02T03:48:14.310Z,73.52
2023-04-02T03:50:56.844Z,73.47
2023-04-02T03:53:33.541Z,74.14
2023-04-02T03:56:08.880Z,73.92
2023-04-02T03:58:48.308Z,73.96
2023-04-02T04:01:30.000Z,74.03
2023-04-02T04:04:10.910Z,74.01
2023-04-02T04:06:47.950Z,73.46
2023-04-02T04:09:28.482Z,72.89
2023-04-02T04:12:15.633Z,72.32
2023-04-02T04:14:56.391Z,72.34
2023-04-02T04:17:38.735Z,72.05
2023-04-02T04:20:21.922Z,71.95
2023-04-02T04:22:58.277Z,72.23
2023-04-02T04:25:35.079Z,72.71
2023-04-02T04:28:21.607Z,72.84
2023-04-02T04:31:01.383Z,73.35
2023-04-02T04:33:44.274Z,73.52
2023-04-02T04:36:28.883Z,72.36
2023-04-02T04:39:14.716Z,72.03
2023-04-02T04:41:55.649Z,73.13
2023-04-02T04:44:41.351Z,73.00
2023-04-02T04:47:21.775Z,72.14
2023-04-02T04:49:59.995Z,73.62
2023-04-02T04:52:38.138Z,91.94
2023-04-02T04:55:28.999Z,87.25
2023-04-02T04:58:19.515Z,73.14
2023-04-02T05:01:03.093Z,72.11
2023-04-02T05:03:44.488Z,71.92
2023-04-02T05:06:25.718Z,71.86
2023-04-02T05:09:08.906Z,73.49
2023-04-02T05:11:48.497Z,72.76
2023-04-02T05:14:32.033Z,72.70
2023-04-02T05:17:11.698Z,72.96
2023-04-02T05:19:49.877Z,72.72
2023-04-02T05:22:34.732Z,73.32
2023-04-02T05:25:22.177Z,72.83
2023-04-02T05:28:04.457Z,72.62
2023-04-02T05:30:52.766Z,72.69
2023-04-02T05:33:29.982Z,73.61
2023-04-02T05:36:09.295Z,84.71
2023-04-02T05:38:48.402Z,77.10
2023-04-02T05:41:28.401Z,71.57
2023-04-02T05:44:09.266Z,71.95
2023-04-02T05:46:50.722Z,72.37
2023-04-02T05:49:32.868Z,72.22
2023-04-02T05:52:13.182Z,72.62
2023-04-02T05:54:53.571Z,73.29
2023-04-02T05:57:44.610Z,73.79
2023-04-02T06:03:24.255Z,72.80
2023-04-02T06:06:05.175Z,72.80
2023-04-02T06:08:48.829Z,74.07
2023-04-02T06:11:28.756Z,74.05
2023-04-02T06:14:05.811Z,74.20
2023-04-02T06:16:41.576Z,72.70
2023-04-02T06:19:23.786Z,73.20
2023-04-02T06:22:08.411Z,72.14
2023-04-02T06:24:46.022Z,71.71
2023-04-02T06:27:25.164Z,72.39
2023-04-02T06:30:06.443Z,72.20
2023-04-02T06:32:41.520Z,70.83
2023-04-02T06:35:19.050Z,71.19
2023-04-02T06:37:57.572Z,70.56
2023-04-02T06:40:43.020Z,70.52
2023-04-02T06:43:26.433Z,73.75
2023-04-02T06:46:07.530Z,71.78
2023-04-02T06:48:43.793Z,70.37
2023-04-02T06:51:24.261Z,71.69
2023-04-02T06:53:58.862Z,71.84
2023-04-02T06:56:43.295Z,71.97
2023-04-02T06:59:20.398Z,71.25
2023-04-02T07:01:59.086Z,70.49
2023-04-02T07:04:35.207Z,69.90
2023-04-02T07:07:11.528Z,69.98
2023-04-02T07:09:46.877Z,70.09
2023-04-02T07:12:25.579Z,69.92
2023-04-02T07:15:00.743Z,70.05
2023-04-02T07:17:35.390Z,71.56
2023-04-02T07:20:26.293Z,68.21
2023-04-02T07:23:02.771Z,68.18
2023-04-02T07:25:38.197Z,68.57
2023-04-02T07:28:15.041Z,69.42
2023-04-02T07:30:50.206Z,68.62
2023-04-02T07:33:27.210Z,68.98
2023-04-02T07:36:02.087Z,68.69
2023-04-02T07:38:37.902Z,69.24
2023-04-02T07:41:13.093Z,68.32
2023-04-02T07:43:48.043Z,68.94
2023-04-02T07:46:22.806Z,69.10
2023-04-02T07:48:57.331Z,68.74
2023-04-02T07:51:32.617Z,69.24
2023-04-02T07:54:10.407Z,68.48
2023-04-02T07:56:45.129Z,68.79
2023-04-02T07:59:19.755Z,67.95
2023-04-02T08:01:54.559Z,67.33
2023-04-02T08:04:29.702Z,68.10
2023-04-02T08:07:04.053Z,67.76
2023-04-02T08:09:40.173Z,68.44
2023-04-02T08:12:15.845Z,68.75
2023-04-02T08:14:50.701Z,68.96
2023-04-02T08:17:25.397Z,69.17
2023-04-02T08:20:01.226Z,66.77
2023-04-02T08:22:35.745Z,66.38
2023-04-02T08:25:12.634Z,65.90
2023-04-02T08:27:48.447Z,69.83
2023-04-02T08:30:23.501Z,63.91
2023-04-02T08:32:57.861Z,64.36
2023-04-02T08:35:32.704Z,64.17
2023-04-02T08:38:07.153Z,64.67
2023-04-02T08:40:45.712Z,63.94
2023-04-02T08:43:48.888Z,63.66
2023-04-02T08:46:28.204Z,63.33
2023-04-02T08:49:06.066Z,63.42
2023-04-02T08:51:41.591Z,63.35
2023-04-02T08:54:23.698Z,63.78
2023-04-02T08:57:05.718Z,63.73
2023-04-02T08:59:42.802Z,63.04
2023-04-02T09:02:33.084Z,63.06
2023-04-02T09:05:17.361Z,63.78
2023-04-02T09:07:53.748Z,64.23
2023-04-02T09:10:38.854Z,65.52
2023-04-02T09:13:24.073Z,65.80
2023-04-02T09:16:07.818Z,66.72
2023-04-02T09:18:44.652Z,66.08
2023-04-02T09:21:32.955Z,65.68
2023-04-02T09:24:10.842Z,65.45
2023-04-02T09:26:45.557Z,64.08
2023-04-02T09:29:48.818Z,63.08
2023-04-02T09:32:45.987Z,63.20
2023-04-02T09:35:26.503Z,64.79
2023-04-02T09:38:20.781Z,63.38
2023-04-02T09:41:00.971Z,63.39
2023-04-02T09:43:37.614Z,64.25
2023-04-02T09:46:24.814Z,64.81
2023-04-02T09:49:02.298Z,65.90
2023-04-02T09:51:38.473Z,65.36
2023-04-02T09:54:16.349Z,65.88
2023-04-02T09:57:02.118Z,66.00
2023-04-02T09:59:37.691Z,65.66
2023-04-02T10:02:28.678Z,66.07
2023-04-02T10:05:06.165Z,64.95
2023-04-02T10:07:44.207Z,65.39
2023-04-02T10:10:26.419Z,65.70
2023-04-02T10:13:03.967Z,62.52
2023-04-02T10:15:45.909Z,62.59
2023-04-02T10:18:35.069Z,63.29
2023-04-02T10:21:14.234Z,63.17
2023-04-02T10:23:48.821Z,61.48
2023-04-02T10:26:36.249Z,61.49
2023-04-02T10:29:32.074Z,61.59
2023-04-02T10:32:13.471Z,61.76
2023-04-02T10:34:59.308Z,63.18
2023-04-02T10:38:02.929Z,63.83
2023-04-02T10:40:41.331Z,64.47
2023-04-02T10:43:46.461Z,65.10
2023-04-02T10:46:27.485Z,66.66
2023-04-02T10:49:10.602Z,66.45
2023-04-02T10:51:51.679Z,67.21
2023-04-02T10:54:39.333Z,65.56
2023-04-02T10:57:24.263Z,66.77
2023-04-02T11:00:08.342Z,65.56
2023-04-02T11:02:48.923Z,66.83
2023-04-02T11:05:40.438Z,67.14
2023-04-02T11:08:21.557Z,71.32
2023-04-02T11:11:03.975Z,73.90
2023-04-02T11:13:48.037Z,73.99
2023-04-02T11:16:23.848Z,74.09
2023-04-02T11:19:25.981Z,73.59
2023-04-02T11:22:06.696Z,70.93
2023-04-02T11:24:46.649Z,68.42
2023-04-02T11:27:27.997Z,67.23
2023-04-02T11:30:14.232Z,67.66
2023-04-02T11:32:49.986Z,68.39
2023-04-02T11:35:40.717Z,66.48
2023-04-02T11:38:52.522Z,67.15
2023-04-02T11:42:07.068Z,65.99
2023-04-02T11:44:43.287Z,65.26
2023-04-02T11:47:19.900Z,63.14
2023-04-02T11:50:04.137Z,62.43
2023-04-02T11:52:51.943Z,63.27
2023-04-02T11:55:30.947Z,63.54
2023-04-02T11:58:25.581Z,64.49
2023-04-02T12:01:38.563Z,63.48
2023-04-02T12:04:55.511Z,62.94
2023-04-02T12:08:05.352Z,63.20
2023-04-02T12:10:55.522Z,62.71
2023-04-02T12:13:51.738Z,70.51
2023-04-02T12:16:32.698Z,65.14
2023-04-02T12:19:09.717Z,66.52
2023-04-02T12:21:47.411Z,66.35
2023-04-02T12:24:23.949Z,66.06
2023-04-02T12:27:18.076Z,65.90
2023-04-02T12:29:52.810Z,64.71
2023-04-02T12:32:31.339Z,64.07
2023-04-02T12:35:08.501Z,63.57
2023-04-02T12:37:43.284Z,63.06
2023-04-02T12:40:19.424Z,61.63
2023-04-02T12:42:54.516Z,59.39
2023-04-02T12:45:33.473Z,59.83
2023-04-02T12:48:13.721Z,57.62
2023-04-02T12:50:48.902Z,58.53
2023-04-02T12:53:27.849Z,58.78
2023-04-02T12:56:03.401Z,58.29
2023-04-02T12:58:40.279Z,58.90
2023-04-02T13:01:18.599Z,59.12
2023-04-02T13:04:08.756Z,59.31
2023-04-02T13:06:52.183Z,60.69
2023-04-02T13:09:31.959Z,60.74
2023-04-02T13:12:07.577Z,57.98
2023-04-02T13:14:43.010Z,59.87
2023-04-02T13:17:44.023Z,59.75
2023-04-02T13:20:35.275Z,59.24
2023-04-02T13:23:32.476Z,58.11
2023-04-02T13:26:18.953Z,58.60
2023-04-02T13:29:01.250Z,58.25
2023-04-02T13:31:37.189Z,58.73
2023-04-02T13:34:12.092Z,59.44
2023-04-02T13:36:48.558Z,61.42
2023-04-02T13:39:22.991Z,60.90
2023-04-02T13:41:59.941Z,59.28
2023-04-02T13:44:37.193Z,58.36
2023-04-02T13:47:15.959Z,60.69
2023-04-02T13:49:50.639Z,59.25
2023-04-02T13:52:26.772Z,57.86
2023-04-02T13:55:01.796Z,58.30
2023-04-02T13:57:37.510Z,58.96
2023-04-02T14:03:08.769Z,60.25
2023-04-02T14:05:54.441Z,60.25
2023-04-02T14:08:40.006Z,62.24
2023-04-02T14:11:30.714Z,60.06
2023-04-02T14:14:19.060Z,61.09
2023-04-02T14:17:06.970Z,59.26
2023-04-02T14:20:06.920Z,58.98
2023-04-02T14:22:56.079Z,60.00
2023-04-02T14:25:40.115Z,58.78
2023-04-02T14:28:27.169Z,59.96
2023-04-02T14:31:10.320Z,60.91
2023-04-02T14:33:52.911Z,60.44
2023-04-02T14:36:37.611Z,60.77
2023-04-02T14:39:23.960Z,60.21
2023-04-02T14:42:02.166Z,60.56
2023-04-02T14:44:43.643Z,61.73
2023-04-02T14:47:24.728Z,62.85
2023-04-02T14:50:07.183Z,64.33
2023-04-02T14:52:47.406Z,68.11
2023-04-02T14:55:28.714Z,68.93
2023-04-02T14:58:07.581Z,73.73
2023-04-02T15:00:45.186Z,71.67
2023-04-02T15:03:24.437Z,72.18
2023-04-02T15:06:03.170Z,74.33
2023-04-02T15:08:42.526Z,72.54
2023-04-02T15:11:21.812Z,71.98
2023-04-02T15:14:04.008Z,69.07
2023-04-02T15:16:38.971Z,68.85
2023-04-02T15:19:15.606Z,69.81
2023-04-02T15:22:20.099Z,69.53
2023-04-02T15:25:04.831Z,70.20
2023-04-02T15:27:59.790Z,71.60
2023-04-02T15:30:38.943Z,72.38
2023-04-02T15:33:37.613Z,72.46
2023-04-02T15:36:34.375Z,73.03
2023-04-02T15:39:38.538Z,74.10
2023-04-02T15:42:25.369Z,75.24
2023-04-02T15:45:22.102Z,78.14
2023-04-02T15:48:12.318Z,79.38
2023-04-02T15:50:55.906Z,73.51
2023-04-02T15:53:40.548Z,74.53
2023-04-02T15:56:26.540Z,76.10
2023-04-02T15:59:26.165Z,76.21
2023-04-02T16:02:21.859Z,75.67
2023-04-02T16:05:05.003Z,75.26
2023-04-02T16:07:57.219Z,75.26
2023-04-02T16:10:41.773Z,74.45
2023-04-02T16:13:26.771Z,73.81
2023-04-02T16:16:07.392Z,73.24
2023-04-02T16:18:52.081Z,72.23
2023-04-02T16:21:33.291Z,71.89
2023-04-02T16:24:12.620Z,71.21
2023-04-02T16:26:56.147Z,70.83
2023-04-02T16:29:55.844Z,71.38
2023-04-02T16:32:46.302Z,70.68
2023-04-02T16:35:42.701Z,69.61
2023-04-02T16:38:37.493Z,69.52
2023-04-02T16:41:23.220Z,70.54
2023-04-02T16:44:06.040Z,70.87
2023-04-02T16:46:52.917Z,73.32
2023-04-02T16:49:37.468Z,70.99
2023-04-02T16:52:30.998Z,70.87
2023-04-02T16:55:26.328Z,71.93
2023-04-02T16:58:15.330Z,72.82
2023-04-02T17:00:54.638Z,73.21
2023-04-02T17:04:11.667Z,73.58
2023-04-02T17:06:58.368Z,74.04
2023-04-02T17:09:43.236Z,74.86
2023-04-02T17:12:22.774Z,74.66
2023-04-02T17:15:02.368Z,75.51
2023-04-02T17:17:38.073Z,75.83
2023-04-02T17:20:19.339Z,75.15
2023-04-02T17:22:57.649Z,74.70
2023-04-02T17:25:36.893Z,73.33
2023-04-02T17:28:17.099Z,73.99
2023-04-02T17:30:54.748Z,71.75
2023-04-02T17:33:29.828Z,70.04
2023-04-02T17:36:23.840Z,67.27
2023-04-02T17:39:09.632Z,67.04
2023-04-02T17:41:48.663Z,66.25
2023-04-02T17:44:54.640Z,66.95
2023-04-02T17:47:38.932Z,67.19
2023-04-02T17:50:52.580Z,66.71
2023-04-02T17:53:39.825Z,66.93
2023-04-02T17:56:35.276Z,67.73
2023-04-02T17:59:29.040Z,68.09
2023-04-02T18:02:18.115Z,68.20
2023-04-02T18:05:02.320Z,68.83
2023-04-02T18:07:44.770Z,68.53
2023-04-02T18:10:28.569Z,68.71
2023-04-02T18:13:13.159Z,68.97
2023-04-02T18:16:00.494Z,68.77
2023-04-02T18:18:52.527Z,67.90
2023-04-02T18:21:36.064Z,68.91
2023-04-02T18:24:29.668Z,68.17
2023-04-02T18:27:18.076Z,68.12
2023-04-02T18:30:02.381Z,68.38
2023-04-02T18:33:09.035Z,68.98
2023-04-02T18:35:53.989Z,69.01
2023-04-02T18:38:39.932Z,68.46
2023-04-02T18:41:28.030Z,69.46
2023-04-02T18:44:18.046Z,68.92
2023-04-02T18:46:56.756Z,70.01
2023-04-02T18:49:37.675Z,69.16
2023-04-02T18:52:15.302Z,68.86
2023-04-02T18:54:53.341Z,69.02
2023-04-02T18:57:32.019Z,87.54
2023-04-02T19:00:29.704Z,68.05
2023-04-02T19:03:13.084Z,67.98
2023-04-02T19:05:53.225Z,68.65
2023-04-02T19:08:33.289Z,68.56
2023-04-02T19:11:14.063Z,68.63
2023-04-02T19:13:51.454Z,68.16
2023-04-02T19:16:44.507Z,68.58
2023-04-02T19:19:22.763Z,69.33
2023-04-02T19:22:26.665Z,68.39
2023-04-02T19:25:32.912Z,69.24
2023-04-02T19:28:13.422Z,69.39
2023-04-02T19:31:06.093Z,69.65
2023-04-02T19:33:49.363Z,70.40
2023-04-02T19:36:47.339Z,84.70
2023-04-02T19:40:11.686Z,68.78
2023-04-02T19:42:49.531Z,69.03
2023-04-02T19:45:43.154Z,69.30
2023-04-02T19:48:21.843Z,70.17
2023-04-02T19:50:58.310Z,69.22
2023-04-02T19:53:35.419Z,69.95
2023-04-02T19:56:10.407Z,70.60
2023-04-02T19:58:45.032Z,71.08
2023-04-02T20:01:20.289Z,71.19
2023-04-02T20:03:55.554Z,70.92
2023-04-02T20:06:31.705Z,71.29
2023-04-02T20:09:08.949Z,71.39
2023-04-02T20:11:43.783Z,93.48
2023-04-02T20:14:18.862Z,84.03
2023-04-02T20:16:53.583Z,67.73
2023-04-02T20:19:28.746Z,69.26
2023-04-02T20:22:03.429Z,70.27
2023-04-02T20:24:41.177Z,70.57
2023-04-02T20:27:16.514Z,71.13
2023-04-02T20:29:51.457Z,71.36
2023-04-02T20:32:26.016Z,71.15
2023-04-02T20:35:00.735Z,71.17
2023-04-02T20:37:35.792Z,70.86
2023-04-02T20:40:12.668Z,71.51
2023-04-02T20:42:47.091Z,71.44
2023-04-02T20:45:21.823Z,71.30
2023-04-02T20:47:56.824Z,83.53
2023-04-02T20:50:31.849Z,70.16
2023-04-02T20:53:06.488Z,69.67
2023-04-02T20:55:43.138Z,70.27
2023-04-02T20:58:19.438Z,69.84
2023-04-02T21:00:56.595Z,70.32
2023-04-02T21:03:30.946Z,70.46
2023-04-02T21:06:06.243Z,70.91
2023-04-02T21:08:40.732Z,70.70
2023-04-02T21:11:17.853Z,70.60
2023-04-02T21:13:52.864Z,71.33
2023-04-02T21:16:30.191Z,70.83
2023-04-02T21:19:07.496Z,70.50
2023-04-02T21:21:44.344Z,70.67
2023-04-02T21:24:18.750Z,70.70
2023-04-02T21:26:54.873Z,70.34
2023-04-02T21:29:29.379Z,71.16
2023-04-02T21:32:14.488Z,70.70
2023-04-02T21:34:55.548Z,70.55
2023-04-02T21:37:30.286Z,70.55
2023-04-02T21:40:04.830Z,70.11
2023-04-02T21:42:41.010Z,69.73
2023-04-02T21:45:15.599Z,69.90
2023-04-02T21:47:50.323Z,69.27
2023-04-02T21:50:24.725Z,69.51
2023-04-02T21:52:59.662Z,69.68
2023-04-02T22:02:59.920Z,68.69
2023-04-02T22:05:35.207Z,68.69
2023-04-02T22:08:09.726Z,69.12
2023-04-02T22:10:44.441Z,69.08
2023-04-02T22:13:18.830Z,68.96
2023-04-02T22:15:53.482Z,69.25
2023-04-02T22:18:29.352Z,68.93
2023-04-02T22:21:04.081Z,68.55
2023-04-02T22:23:38.771Z,68.46
2023-04-02T22:26:16.008Z,68.76
2023-04-02T22:28:52.742Z,69.08
2023-04-02T22:31:29.654Z,68.86
2023-04-02T22:34:06.964Z,69.06
2023-04-02T22:36:41.664Z,69.15
2023-04-02T22:39:17.205Z,68.83
2023-04-02T22:41:51.872Z,68.58
2023-04-02T22:44:26.311Z,68.74
2023-04-02T22:47:00.925Z,68.51
2023-04-02T22:49:36.888Z,68.94
2023-04-02T22:52:11.670Z,68.81
2023-04-02T22:54:46.376Z,68.60
2023-04-02T22:57:21.625Z,68.57
2023-04-02T22:59:56.101Z,68.41
2023-04-02T23:02:31.135Z,68.39
2023-04-02T23:05:08.792Z,68.29
2023-04-02T23:07:43.481Z,68.13
2023-04-02T23:10:18.066Z,68.71
2023-04-02T23:12:52.867Z,68.69
2023-04-02T23:15:27.326Z,69.24
2023-04-02T23:18:01.966Z,68.87
2023-04-02T23:20:38.097Z,68.73
2023-04-02T23:23:12.923Z,68.33
2023-04-02T23:25:47.433Z,68.53
2023-04-02T23:28:22.151Z,68.98
2023-04-02T23:30:56.677Z,68.77
2023-04-02T23:33:31.701Z,69.03
2023-04-02T23:36:11.229Z,69.25
2023-04-02T23:38:46.238Z,69.09
2023-04-02T23:41:21.644Z,69.63
2023-04-02T23:43:56.963Z,70.11
2023-04-02T23:46:32.352Z,70.01
2023-04-02T23:49:07.306Z,70.36
2023-04-02T23:51:43.100Z,70.11
2023-04-02T23:54:18.315Z,70.65
2023-04-02T23:56:52.630Z,71.14
2023-04-02T23:59:27.423Z,71.10
